Time;durP1;ratioP1;P1;durP2;ratioP2;P2;SDS_P1;SDS_P2;PMS_P1;PMS_P2;Temp;Humidity;BMP_temperature;BMP_pressure;BME280_temperature;BME280_humidity;BME280_pressure;Samples;Min_cycle;Max_cycle;Signal;HPM_P1;HPM_P2
2020/12/21 00:01:45;;;;;;;14.90;5.03;;;8.40;99.90;;;;;;478988;248;28404;-76
2020/12/21 00:03:47;;;;;;;8.93;4.33;;;8.40;99.90;;;;;;479040;248;28485;-75
2020/12/21 00:05:48;;;;;;;15.80;4.67;;;8.40;99.90;;;;;;479132;248;28615;-77
2020/12/21 00:07:49;;;;;;;6.80;3.97;;;8.40;99.90;;;;;;479221;248;28173;-77
2020/12/21 00:09:50;;;;;;;9.10;4.70;;;8.40;99.90;;;;;;479205;248;27752;-76
2020/12/21 00:11:52;;;;;;;5.40;3.90;;;8.40;99.90;;;;;;479066;248;27650;-76
2020/12/21 00:13:53;;;;;;;10.00;4.73;;;8.40;99.90;;;;;;479089;248;28109;-76
2020/12/21 00:15:54;;;;;;;9.10;3.93;;;8.40;99.90;;;;;;479040;248;27789;-77
2020/12/21 00:17:55;;;;;;;6.80;3.80;;;8.40;99.90;;;;;;479018;248;28132;-77
2020/12/21 00:19:57;;;;;;;8.70;3.80;;;8.40;99.90;;;;;;479005;248;28109;-76
2020/12/21 00:21:58;;;;;;;13.20;3.70;;;8.40;99.90;;;;;;478970;248;28035;-76
2020/12/21 00:23:59;;;;;;;9.30;4.30;;;8.40;99.90;;;;;;479047;248;27982;-75
2020/12/21 00:26:00;;;;;;;6.13;3.73;;;8.40;99.90;;;;;;479024;248;28211;-76
2020/12/21 00:28:02;;;;;;;7.30;4.00;;;8.40;99.90;;;;;;478999;248;28102;-76
2020/12/21 00:30:03;;;;;;;7.83;4.00;;;8.30;99.90;;;;;;478959;248;28072;-76
2020/12/21 00:32:04;;;;;;;9.43;3.93;;;8.30;99.90;;;;;;478971;248;29369;-76
2020/12/21 00:34:05;;;;;;;8.40;3.70;;;8.30;99.90;;;;;;478992;248;28428;-76
2020/12/21 00:36:07;;;;;;;8.60;3.70;;;8.30;99.90;;;;;;479020;248;28627;-76
2020/12/21 00:38:08;;;;;;;11.40;4.13;;;8.30;99.90;;;;;;479297;248;28614;-78
2020/12/21 00:40:09;;;;;;;7.50;3.50;;;8.40;99.90;;;;;;479325;248;28021;-76
2020/12/21 00:42:10;;;;;;;8.00;3.60;;;8.40;99.90;;;;;;479278;248;27799;-76
2020/12/21 00:44:12;;;;;;;7.43;3.43;;;8.30;99.90;;;;;;479094;248;27997;-76
2020/12/21 00:46:13;;;;;;;7.40;3.63;;;8.20;99.90;;;;;;479141;248;28617;-76
2020/12/21 00:48:14;;;;;;;9.40;3.90;;;8.20;99.90;;;;;;479157;248;28095;-75
2020/12/21 00:50:15;;;;;;;7.93;3.53;;;8.20;99.90;;;;;;479152;248;28036;-76
2020/12/21 00:52:17;;;;;;;8.03;3.93;;;8.20;99.90;;;;;;479215;248;28037;-78
2020/12/21 00:54:18;;;;;;;8.30;3.27;;;8.20;99.90;;;;;;479216;248;28009;-76
2020/12/21 00:56:19;;;;;;;7.33;3.77;;;8.30;99.90;;;;;;479191;248;28005;-76
2020/12/21 00:58:20;;;;;;;6.77;4.27;;;8.30;99.90;;;;;;479022;248;28040;-75
2020/12/21 01:00:22;;;;;;;9.37;3.90;;;8.30;99.90;;;;;;478994;248;28034;-76
2020/12/21 01:02:23;;;;;;;10.30;4.67;;;8.20;99.90;;;;;;479039;248;28154;-77
2020/12/21 01:04:24;;;;;;;8.33;4.17;;;8.20;99.90;;;;;;479056;248;28018;-75
2020/12/21 01:06:25;;;;;;;9.70;4.20;;;8.20;99.90;;;;;;479030;248;29074;-76
2020/12/21 01:08:27;;;;;;;11.00;3.40;;;8.20;99.90;;;;;;479051;248;28573;-75
2020/12/21 01:10:28;;;;;;;9.13;3.97;;;8.30;99.90;;;;;;478963;248;28669;-74
2020/12/21 01:12:29;;;;;;;5.70;3.60;;;8.20;99.90;;;;;;479002;248;28220;-75
2020/12/21 01:14:30;;;;;;;8.03;3.97;;;8.30;99.90;;;;;;479023;248;28653;-75
2020/12/21 01:16:32;;;;;;;9.03;3.90;;;8.20;99.90;;;;;;479076;248;28009;-76
2020/12/21 01:18:33;;;;;;;9.23;3.37;;;8.20;99.90;;;;;;479051;248;27926;-77
2020/12/21 01:20:34;;;;;;;11.93;3.63;;;8.20;99.90;;;;;;479005;248;28047;-76
2020/12/21 01:22:35;;;;;;;8.27;3.90;;;8.20;99.90;;;;;;479047;248;28047;-75
2020/12/21 01:24:40;;;;;;;6.63;3.83;;;8.20;99.90;;;;;;479017;248;27667;-75
2020/12/21 01:26:38;;;;;;;9.90;3.70;;;8.20;99.90;;;;;;479203;248;28079;-76
2020/12/21 01:28:39;;;;;;;14.83;4.20;;;8.20;99.90;;;;;;479283;248;27793;-76
2020/12/21 01:30:40;;;;;;;8.07;4.33;;;8.20;99.90;;;;;;478991;248;27682;-76
2020/12/21 01:32:42;;;;;;;13.23;3.57;;;8.30;99.90;;;;;;479053;248;28142;-76
2020/12/21 01:34:43;;;;;;;12.63;3.60;;;8.30;99.90;;;;;;479022;248;27894;-75
2020/12/21 01:36:44;;;;;;;9.50;3.53;;;8.30;99.90;;;;;;479110;248;28040;-75
2020/12/21 01:38:45;;;;;;;11.10;4.03;;;8.30;99.90;;;;;;479057;248;28014;-75
2020/12/21 01:40:47;;;;;;;9.27;3.70;;;8.30;99.90;;;;;;478792;248;28156;-76
2020/12/21 01:42:48;;;;;;;16.23;3.73;;;8.20;99.90;;;;;;479026;248;28665;-75
2020/12/21 01:44:49;;;;;;;9.20;3.73;;;8.20;99.90;;;;;;478986;248;28789;-76
2020/12/21 01:46:50;;;;;;;12.23;4.10;;;8.30;99.90;;;;;;479064;248;29410;-74
2020/12/21 01:48:52;;;;;;;8.80;4.00;;;8.20;99.90;;;;;;479035;248;27918;-76
2020/12/21 01:50:53;;;;;;;14.10;4.13;;;8.10;99.90;;;;;;479000;248;28111;-76
2020/12/21 01:52:54;;;;;;;8.10;3.70;;;8.10;99.90;;;;;;479058;248;28257;-75
2020/12/21 01:54:55;;;;;;;14.33;3.60;;;8.20;99.90;;;;;;478897;248;28053;-76
2020/12/21 01:56:57;;;;;;;11.80;3.47;;;8.20;99.90;;;;;;478782;248;27654;-74
2020/12/21 01:58:58;;;;;;;13.00;4.10;;;8.20;99.90;;;;;;478984;248;28047;-75
2020/12/21 02:00:59;;;;;;;8.13;3.50;;;8.10;99.90;;;;;;479007;248;28121;-76
2020/12/21 02:03:00;;;;;;;7.43;3.30;;;8.20;99.90;;;;;;479017;248;28006;-75
2020/12/21 02:05:02;;;;;;;7.03;3.63;;;8.20;99.90;;;;;;479063;248;28049;-75
2020/12/21 02:07:03;;;;;;;7.43;3.60;;;8.10;99.90;;;;;;479023;248;28024;-75
2020/12/21 02:09:04;;;;;;;9.40;2.87;;;8.10;99.90;;;;;;479061;248;28241;-75
2020/12/21 02:11:05;;;;;;;9.63;2.90;;;8.10;99.90;;;;;;479041;248;28129;-76
2020/12/21 02:13:07;;;;;;;9.30;3.30;;;8.20;99.90;;;;;;479187;248;27876;-75
2020/12/21 02:15:08;;;;;;;7.10;3.20;;;8.20;99.90;;;;;;479196;248;28034;-75
2020/12/21 02:17:09;;;;;;;6.90;2.60;;;8.20;99.90;;;;;;479207;248;28118;-75
2020/12/21 02:19:10;;;;;;;7.87;2.67;;;8.10;99.90;;;;;;479126;248;27776;-75
2020/12/21 02:21:12;;;;;;;4.63;2.53;;;8.20;99.90;;;;;;479150;248;27777;-76
2020/12/21 02:23:13;;;;;;;5.47;3.03;;;8.20;99.90;;;;;;479186;248;27982;-75
2020/12/21 02:25:14;;;;;;;6.67;2.80;;;8.20;99.90;;;;;;479230;248;27683;-75
2020/12/21 02:27:15;;;;;;;7.87;3.03;;;8.10;99.90;;;;;;479203;248;27876;-76
2020/12/21 02:29:17;;;;;;;5.47;2.90;;;8.10;99.90;;;;;;479235;248;27761;-75
2020/12/21 02:31:18;;;;;;;11.73;3.10;;;8.10;99.90;;;;;;479215;248;28581;-76
2020/12/21 02:33:19;;;;;;;9.30;3.00;;;8.10;99.90;;;;;;479262;248;28423;-75
2020/12/21 02:35:20;;;;;;;11.53;3.20;;;8.10;99.90;;;;;;479139;248;28449;-75
2020/12/21 02:37:22;;;;;;;9.60;2.80;;;8.10;99.90;;;;;;479220;248;29038;-76
2020/12/21 02:39:23;;;;;;;8.57;3.07;;;8.10;99.90;;;;;;479228;248;28104;-76
2020/12/21 02:41:24;;;;;;;13.50;3.40;;;8.10;99.90;;;;;;479181;248;27681;-77
2020/12/21 02:43:25;;;;;;;9.70;3.17;;;8.10;99.90;;;;;;479163;248;27919;-75
2020/12/21 02:45:27;;;;;;;5.73;2.50;;;8.10;99.90;;;;;;479133;248;28036;-76
2020/12/21 02:47:28;;;;;;;9.57;2.80;;;8.10;99.90;;;;;;479032;248;27673;-77
2020/12/21 02:49:29;;;;;;;9.73;3.50;;;8.10;99.90;;;;;;479022;248;27888;-76
2020/12/21 02:51:30;;;;;;;8.63;3.20;;;8.10;99.90;;;;;;479018;248;28019;-76
2020/12/21 02:53:32;;;;;;;5.50;2.77;;;8.10;99.90;;;;;;479073;248;27884;-75
2020/12/21 02:55:33;;;;;;;7.17;3.50;;;8.10;99.90;;;;;;479064;248;28001;-75
2020/12/21 02:57:34;;;;;;;5.53;2.60;;;8.10;99.90;;;;;;479045;248;27703;-76
2020/12/21 02:59:35;;;;;;;8.23;2.60;;;8.00;99.90;;;;;;479071;248;28153;-75
2020/12/21 03:01:37;;;;;;;6.40;2.80;;;8.00;99.90;;;;;;479029;248;28079;-76
2020/12/21 03:03:38;;;;;;;10.07;3.37;;;8.10;99.90;;;;;;479016;248;28117;-75
2020/12/21 03:05:39;;;;;;;7.93;2.90;;;8.10;99.90;;;;;;479051;248;28456;-76
2020/12/21 03:07:40;;;;;;;5.83;2.90;;;8.10;99.90;;;;;;479092;248;28413;-76
2020/12/21 03:09:42;;;;;;;8.57;3.00;;;8.10;99.90;;;;;;479138;248;28562;-76
2020/12/21 03:11:43;;;;;;;8.93;3.20;;;8.10;99.90;;;;;;478965;248;28503;-75
2020/12/21 03:13:44;;;;;;;7.00;3.47;;;8.00;99.90;;;;;;479161;248;28189;-76
2020/12/21 03:15:45;;;;;;;7.80;3.10;;;8.00;99.90;;;;;;479192;248;27752;-76
2020/12/21 03:17:47;;;;;;;7.33;3.17;;;8.00;99.90;;;;;;479171;248;27999;-75
2020/12/21 03:19:48;;;;;;;5.60;2.63;;;8.00;99.90;;;;;;479118;248;27792;-75
2020/12/21 03:21:49;;;;;;;10.70;3.13;;;8.00;99.90;;;;;;478874;248;28045;-75
2020/12/21 03:23:50;;;;;;;6.23;2.80;;;8.00;99.90;;;;;;479019;248;28079;-77
2020/12/21 03:25:52;;;;;;;4.73;3.00;;;8.10;99.90;;;;;;479042;248;28038;-75
2020/12/21 03:27:53;;;;;;;6.93;3.13;;;8.10;99.90;;;;;;478691;248;28021;-76
2020/12/21 03:29:54;;;;;;;6.53;2.90;;;8.10;99.90;;;;;;478994;248;27562;-75
2020/12/21 03:31:55;;;;;;;5.57;2.70;;;8.10;99.90;;;;;;479010;248;28396;-75
2020/12/21 03:33:57;;;;;;;8.90;3.33;;;8.10;99.90;;;;;;479061;248;27801;-75
2020/12/21 03:35:58;;;;;;;7.67;2.60;;;8.10;99.90;;;;;;479011;248;28258;-76
2020/12/21 03:37:59;;;;;;;8.50;2.70;;;8.00;99.90;;;;;;479044;248;28075;-75
2020/12/21 03:40:00;;;;;;;3.60;2.37;;;8.00;99.90;;;;;;479025;248;28003;-76
2020/12/21 03:42:02;;;;;;;7.17;2.70;;;8.10;99.90;;;;;;479139;248;27885;-75
2020/12/21 03:44:03;;;;;;;12.40;3.40;;;8.00;99.90;;;;;;479186;248;28601;-76
2020/12/21 03:46:04;;;;;;;5.87;2.37;;;8.00;99.90;;;;;;479178;248;28852;-75
2020/12/21 03:48:05;;;;;;;8.50;3.30;;;7.90;99.90;;;;;;479132;248;28535;-75
2020/12/21 03:50:07;;;;;;;6.33;2.80;;;7.80;99.90;;;;;;479188;248;28573;-77
2020/12/21 03:52:08;;;;;;;7.60;2.60;;;7.80;99.90;;;;;;479277;248;27780;-75
2020/12/21 03:54:09;;;;;;;7.23;2.93;;;7.70;99.90;;;;;;479232;248;28684;-76
2020/12/21 03:56:10;;;;;;;10.10;3.63;;;7.80;99.90;;;;;;479255;248;28032;-74
2020/12/21 03:58:12;;;;;;;15.23;3.23;;;7.70;99.90;;;;;;479210;248;28041;-77
2020/12/21 04:00:13;;;;;;;6.30;3.10;;;7.60;99.90;;;;;;479203;248;28135;-77
2020/12/21 04:02:14;;;;;;;10.60;3.43;;;7.60;99.90;;;;;;479229;248;27986;-76
2020/12/21 04:04:15;;;;;;;7.93;2.73;;;7.60;99.90;;;;;;479220;248;28069;-76
2020/12/21 04:06:17;;;;;;;10.10;3.70;;;7.70;99.90;;;;;;479208;248;28033;-76
2020/12/21 04:08:18;;;;;;;11.13;4.13;;;7.70;99.90;;;;;;479145;248;27918;-76
2020/12/21 04:10:19;;;;;;;11.67;4.03;;;7.70;99.90;;;;;;478941;248;28195;-77
2020/12/21 04:12:20;;;;;;;9.20;3.60;;;7.70;99.90;;;;;;479057;248;28516;-77
2020/12/21 04:14:22;;;;;;;5.70;3.20;;;7.80;99.90;;;;;;479047;248;28267;-77
2020/12/21 04:16:23;;;;;;;8.70;3.30;;;7.80;99.90;;;;;;478845;248;28689;-76
2020/12/21 04:18:24;;;;;;;6.63;2.53;;;7.80;99.90;;;;;;478588;248;28606;-76
2020/12/21 04:20:25;;;;;;;5.20;2.93;;;7.80;99.90;;;;;;478918;248;29647;-76
2020/12/21 04:22:27;;;;;;;11.53;3.37;;;7.80;99.90;;;;;;478938;248;28455;-76
2020/12/21 04:24:28;;;;;;;7.07;3.10;;;7.70;99.90;;;;;;478468;248;28198;-77
2020/12/21 04:26:29;;;;;;;10.00;3.30;;;7.80;99.90;;;;;;478926;248;28927;-77
2020/12/21 04:28:30;;;;;;;15.43;4.07;;;7.70;99.90;;;;;;478862;248;28029;-76
2020/12/21 04:30:32;;;;;;;4.70;2.80;;;7.70;99.90;;;;;;478870;248;28036;-76
2020/12/21 04:32:33;;;;;;;5.87;2.90;;;7.70;99.90;;;;;;478970;248;27778;-76
2020/12/21 04:34:34;;;;;;;6.97;2.70;;;7.70;99.90;;;;;;478962;248;27960;-76
2020/12/21 04:36:35;;;;;;;9.30;3.23;;;7.70;99.90;;;;;;478975;248;28148;-78
2020/12/21 04:38:37;;;;;;;5.10;3.10;;;7.80;99.90;;;;;;478975;248;28084;-76
2020/12/21 04:40:38;;;;;;;10.23;3.70;;;7.80;99.90;;;;;;478713;248;28204;-77
2020/12/21 04:42:39;;;;;;;6.90;3.07;;;7.80;99.90;;;;;;479080;248;28272;-76
2020/12/21 04:44:40;;;;;;;10.17;3.53;;;7.80;99.90;;;;;;479011;248;28195;-78
2020/12/21 04:46:42;;;;;;;9.13;2.73;;;7.80;99.90;;;;;;479179;248;28631;-77
2020/12/21 04:48:44;;;;;;;7.97;3.13;;;7.80;99.90;;;;;;479193;248;28736;-76
2020/12/21 04:50:44;;;;;;;13.60;3.70;;;7.90;99.90;;;;;;479312;248;28287;-77
2020/12/21 04:52:45;;;;;;;8.23;2.57;;;7.90;99.90;;;;;;479061;248;28098;-76
2020/12/21 04:54:47;;;;;;;6.20;2.83;;;7.80;99.90;;;;;;479076;248;28689;-76
2020/12/21 04:56:48;;;;;;;7.50;3.13;;;7.80;99.90;;;;;;478774;248;27540;-77
2020/12/21 04:58:49;;;;;;;12.50;3.73;;;7.80;99.90;;;;;;479069;248;28158;-77
2020/12/21 05:00:50;;;;;;;5.33;2.43;;;7.80;99.90;;;;;;479047;248;27785;-76
2020/12/21 05:02:52;;;;;;;6.70;2.70;;;7.80;99.90;;;;;;479054;248;27935;-77
2020/12/21 05:04:53;;;;;;;6.83;2.73;;;7.90;99.90;;;;;;479055;248;27900;-76
2020/12/21 05:06:54;;;;;;;8.50;2.70;;;7.90;99.90;;;;;;479058;248;27887;-76
2020/12/21 05:08:55;;;;;;;11.50;3.13;;;7.90;99.90;;;;;;478553;240;28466;-76
2020/12/21 05:10:57;;;;;;;8.43;2.70;;;7.90;99.90;;;;;;477150;249;28177;-76
2020/12/21 05:12:58;;;;;;;8.07;2.90;;;7.90;99.90;;;;;;477209;249;27952;-77
2020/12/21 05:14:59;;;;;;;9.13;3.07;;;7.90;99.90;;;;;;476881;245;27667;-76
2020/12/21 05:17:00;;;;;;;14.00;3.10;;;7.90;99.90;;;;;;477252;249;27976;-76
2020/12/21 05:19:02;;;;;;;10.97;2.60;;;7.90;99.90;;;;;;477409;249;28430;-76
2020/12/21 05:21:03;;;;;;;7.57;2.60;;;7.80;99.90;;;;;;477408;249;28356;-77
2020/12/21 05:23:04;;;;;;;6.63;2.77;;;7.80;99.90;;;;;;477456;249;28178;-76
2020/12/21 05:25:05;;;;;;;5.63;2.50;;;7.70;99.90;;;;;;477283;245;28075;-76
2020/12/21 05:27:07;;;;;;;9.03;3.13;;;7.70;99.90;;;;;;477411;249;28499;-76
2020/12/21 05:29:08;;;;;;;7.80;2.93;;;7.70;99.90;;;;;;477349;245;28193;-78
2020/12/21 05:31:09;;;;;;;11.33;3.57;;;7.70;99.90;;;;;;477399;249;28015;-77
2020/12/21 05:33:10;;;;;;;6.67;2.90;;;7.70;99.90;;;;;;477444;249;28030;-77
2020/12/21 05:35:13;;;;;;;9.77;2.93;;;7.70;99.90;;;;;;477463;249;27916;-76
2020/12/21 05:37:13;;;;;;;5.57;2.70;;;7.70;99.90;;;;;;477394;249;27939;-77
2020/12/21 05:39:14;;;;;;;7.93;3.37;;;7.70;99.90;;;;;;477446;245;27919;-78
2020/12/21 05:41:19;;;;;;;10.73;2.70;;;7.70;99.90;;;;;;477284;249;27439;-77
2020/12/21 05:43:19;;;;;;;8.80;2.90;;;7.70;99.90;;;;;;477269;249;27924;-74
2020/12/21 05:45:21;;;;;;;9.73;2.90;;;7.70;99.90;;;;;;477240;249;27552;-74
2020/12/21 05:47:22;;;;;;;4.90;2.70;;;7.70;99.90;;;;;;477288;249;27571;-76
2020/12/21 05:49:23;;;;;;;7.27;2.73;;;7.60;99.90;;;;;;477244;249;27429;-76
2020/12/21 05:51:24;;;;;;;3.87;2.60;;;7.60;99.90;;;;;;477211;249;28830;-74
2020/12/21 05:53:26;;;;;;;7.90;3.87;;;7.60;99.90;;;;;;477254;245;28014;-77
2020/12/21 05:55:27;;;;;;;6.73;3.23;;;7.60;99.90;;;;;;477299;249;27947;-75
2020/12/21 05:57:28;;;;;;;5.97;2.90;;;7.70;99.90;;;;;;477266;249;27810;-77
2020/12/21 05:59:29;;;;;;;8.37;3.47;;;7.70;99.90;;;;;;477265;249;28170;-76
2020/12/21 06:01:31;;;;;;;6.47;2.80;;;7.70;99.90;;;;;;477225;249;28419;-75
2020/12/21 06:03:32;;;;;;;9.80;3.53;;;7.70;99.90;;;;;;477267;249;28389;-76
2020/12/21 06:05:33;;;;;;;8.20;3.20;;;7.70;99.90;;;;;;477273;249;28424;-77
2020/12/21 06:07:34;;;;;;;4.80;3.10;;;7.70;99.90;;;;;;477279;249;28396;-77
2020/12/21 06:09:36;;;;;;;11.50;3.37;;;7.70;99.90;;;;;;477256;245;28330;-76
2020/12/21 06:11:39;;;;;;;7.80;3.30;;;7.70;99.90;;;;;;477238;249;28039;-76
2020/12/21 06:13:38;;;;;;;7.13;3.13;;;7.70;99.90;;;;;;477196;249;27907;-76
2020/12/21 06:15:39;;;;;;;8.13;2.60;;;7.70;99.90;;;;;;477298;249;28027;-76
2020/12/21 06:17:41;;;;;;;12.43;3.17;;;7.80;99.90;;;;;;477313;249;28041;-76
2020/12/21 06:19:42;;;;;;;6.23;2.53;;;7.80;99.90;;;;;;476961;245;28019;-76
2020/12/21 06:21:44;;;;;;;10.30;3.00;;;7.80;99.90;;;;;;477359;249;28030;-76
2020/12/21 06:23:45;;;;;;;9.37;2.73;;;7.80;99.90;;;;;;477380;249;28161;-77
2020/12/21 06:25:46;;;;;;;6.17;2.50;;;7.80;99.90;;;;;;477376;249;27948;-76
2020/12/21 06:27:47;;;;;;;11.67;3.33;;;7.80;99.90;;;;;;477361;249;27798;-76
2020/12/21 06:29:48;;;;;;;7.07;2.73;;;7.90;99.90;;;;;;477412;249;27733;-76
2020/12/21 06:31:49;;;;;;;6.27;2.67;;;7.90;99.90;;;;;;477188;249;28257;-76
2020/12/21 06:33:51;;;;;;;6.07;3.43;;;7.90;99.90;;;;;;477276;249;27981;-76
2020/12/21 06:35:52;;;;;;;13.20;3.37;;;7.90;99.90;;;;;;477281;249;28655;-77
2020/12/21 06:37:53;;;;;;;9.50;2.73;;;7.90;99.90;;;;;;477255;249;28418;-76
2020/12/21 06:39:54;;;;;;;9.30;2.90;;;7.90;99.90;;;;;;477224;249;29237;-78
2020/12/21 06:41:56;;;;;;;6.40;2.60;;;7.90;99.90;;;;;;477178;249;28434;-76
2020/12/21 06:43:57;;;;;;;5.80;2.50;;;8.00;99.90;;;;;;477270;249;28136;-76
2020/12/21 06:45:58;;;;;;;5.70;2.50;;;7.90;99.90;;;;;;477235;249;28069;-77
2020/12/21 06:47:59;;;;;;;10.33;2.87;;;7.90;99.90;;;;;;477258;249;27954;-76
2020/12/21 06:50:01;;;;;;;7.70;2.70;;;7.90;99.90;;;;;;477268;245;27944;-76
2020/12/21 06:52:02;;;;;;;7.90;2.90;;;7.90;99.90;;;;;;477323;245;27968;-76
2020/12/21 06:54:03;;;;;;;7.70;2.83;;;7.90;99.90;;;;;;477321;245;27780;-77
2020/12/21 06:56:04;;;;;;;11.00;3.07;;;7.90;99.90;;;;;;477450;249;27494;-76
2020/12/21 06:58:06;;;;;;;11.30;2.47;;;7.90;99.90;;;;;;477290;249;28103;-76
2020/12/21 07:00:07;;;;;;;8.20;2.90;;;7.90;99.90;;;;;;477309;249;28164;-78
2020/12/21 07:02:08;;;;;;;5.47;2.57;;;7.90;99.90;;;;;;477360;249;27904;-76
2020/12/21 07:04:10;;;;;;;9.57;2.57;;;7.90;99.90;;;;;;477403;249;28415;-77
2020/12/21 07:06:11;;;;;;;7.77;2.73;;;7.90;99.90;;;;;;477419;249;27802;-76
2020/12/21 07:08:12;;;;;;;8.10;3.13;;;7.90;99.90;;;;;;477415;249;28405;-76
2020/12/21 07:10:13;;;;;;;7.37;3.63;;;7.80;99.90;;;;;;477359;249;28583;-77
2020/12/21 07:12:14;;;;;;;6.40;2.67;;;7.90;99.90;;;;;;477388;249;28315;-76
2020/12/21 07:14:16;;;;;;;5.57;2.50;;;7.90;99.90;;;;;;477321;249;28609;-77
2020/12/21 07:16:17;;;;;;;5.53;2.57;;;7.90;99.90;;;;;;477258;249;28521;-76
2020/12/21 07:18:18;;;;;;;7.73;2.40;;;8.00;99.90;;;;;;477270;249;28019;-76
2020/12/21 07:20:19;;;;;;;5.93;2.30;;;7.90;99.90;;;;;;477242;249;28093;-76
2020/12/21 07:22:21;;;;;;;5.50;2.53;;;7.90;99.90;;;;;;477286;249;27895;-76
2020/12/21 07:24:22;;;;;;;3.70;2.00;;;7.90;99.90;;;;;;477303;249;28752;-77
2020/12/21 07:26:23;;;;;;;4.67;2.10;;;7.90;99.90;;;;;;477203;249;28020;-76
2020/12/21 07:28:24;;;;;;;5.30;2.13;;;8.00;99.90;;;;;;477278;249;27953;-76
2020/12/21 07:30:28;;;;;;;5.40;2.27;;;8.00;99.90;;;;;;477225;249;28073;-77
2020/12/21 07:32:30;;;;;;;7.30;2.20;;;8.00;99.90;;;;;;477234;249;27806;-73
2020/12/21 07:34:31;;;;;;;8.27;2.73;;;8.00;99.90;;;;;;477256;249;28036;-76
2020/12/21 07:36:38;;;;;;;12.73;2.40;;;8.00;99.90;;;;;;477273;249;28023;-76
2020/12/21 07:38:33;;;;;;;11.20;2.70;;;8.00;99.90;;;;;;476849;249;28227;-76
2020/12/21 07:40:35;;;;;;;6.70;2.43;;;8.00;99.90;;;;;;477255;246;28290;-76
2020/12/21 07:42:36;;;;;;;10.03;2.60;;;8.00;99.90;;;;;;477256;249;28739;-76
2020/12/21 07:44:37;;;;;;;10.57;2.70;;;8.00;99.90;;;;;;477237;249;27822;-76
2020/12/21 07:46:38;;;;;;;10.83;2.50;;;8.00;99.90;;;;;;477252;245;27655;-76
2020/12/21 07:48:40;;;;;;;6.37;2.43;;;8.00;99.90;;;;;;477282;249;27519;-77
2020/12/21 07:50:42;;;;;;;8.40;3.30;;;8.10;99.90;;;;;;477335;245;27798;-78
2020/12/21 07:52:42;;;;;;;5.07;2.33;;;8.10;99.90;;;;;;477357;249;28058;-76
2020/12/21 07:54:43;;;;;;;11.27;2.77;;;8.10;99.90;;;;;;477395;249;27536;-76
2020/12/21 07:56:45;;;;;;;6.30;2.57;;;8.10;99.90;;;;;;477327;249;27927;-77
2020/12/21 07:58:46;;;;;;;6.40;2.67;;;8.00;99.90;;;;;;477341;245;28054;-76
2020/12/21 08:00:47;;;;;;;6.50;2.63;;;8.00;99.90;;;;;;477233;249;28117;-76
2020/12/21 08:02:48;;;;;;;9.83;2.40;;;8.00;99.90;;;;;;477263;249;27914;-76
2020/12/21 08:04:50;;;;;;;7.90;3.07;;;7.90;99.90;;;;;;477237;245;28205;-76
2020/12/21 08:06:51;;;;;;;6.50;3.10;;;7.90;99.90;;;;;;477283;249;28125;-77
2020/12/21 08:08:52;;;;;;;4.07;2.47;;;7.90;99.90;;;;;;477181;249;28569;-76
2020/12/21 08:10:53;;;;;;;10.00;2.77;;;7.90;99.90;;;;;;477084;249;28952;-77
2020/12/21 08:12:55;;;;;;;6.00;2.50;;;8.00;99.90;;;;;;477192;249;28732;-74
2020/12/21 08:14:56;;;;;;;8.70;2.97;;;8.00;99.90;;;;;;477171;245;28272;-77
2020/12/21 08:16:57;;;;;;;7.27;3.43;;;8.00;99.90;;;;;;477253;245;28487;-76
2020/12/21 08:18:59;;;;;;;6.07;2.93;;;8.00;99.90;;;;;;477248;249;27683;-76
2020/12/21 08:21:00;;;;;;;7.33;2.37;;;8.00;99.90;;;;;;477207;249;27916;-77
2020/12/21 08:23:01;;;;;;;5.17;2.70;;;8.00;99.90;;;;;;477211;249;27645;-77
2020/12/21 08:25:02;;;;;;;3.50;2.10;;;8.00;99.90;;;;;;477255;249;27930;-77
2020/12/21 08:27:03;;;;;;;7.43;3.10;;;8.00;99.90;;;;;;477287;249;27980;-76
2020/12/21 08:29:05;;;;;;;5.80;2.50;;;8.00;99.90;;;;;;477299;249;27961;-76
2020/12/21 08:31:06;;;;;;;4.03;2.47;;;8.00;99.90;;;;;;477278;249;28169;-77
2020/12/21 08:33:07;;;;;;;5.67;2.80;;;8.00;99.90;;;;;;477422;249;27916;-76
2020/12/21 08:35:08;;;;;;;8.47;2.50;;;8.00;99.90;;;;;;477381;249;27914;-76
2020/12/21 08:37:10;;;;;;;5.40;2.43;;;7.90;99.90;;;;;;477246;249;28469;-76
2020/12/21 08:39:11;;;;;;;11.33;2.97;;;8.00;99.90;;;;;;477279;249;27689;-77
2020/12/21 08:41:12;;;;;;;7.57;2.67;;;8.00;99.90;;;;;;477299;249;27934;-78
2020/12/21 08:43:13;;;;;;;6.13;2.47;;;8.00;99.90;;;;;;477513;249;27917;-76
2020/12/21 08:45:15;;;;;;;3.53;2.40;;;8.00;99.90;;;;;;477452;249;28280;-77
2020/12/21 08:47:16;;;;;;;7.17;2.63;;;8.00;99.90;;;;;;477357;249;28218;-76
2020/12/21 08:49:17;;;;;;;7.47;2.70;;;8.00;99.90;;;;;;477308;249;28410;-76
2020/12/21 08:51:18;;;;;;;5.20;2.40;;;8.00;99.90;;;;;;477267;249;28589;-77
2020/12/21 08:53:20;;;;;;;4.67;2.43;;;8.00;99.90;;;;;;477294;249;28426;-76
2020/12/21 08:55:21;;;;;;;6.40;2.73;;;8.10;99.90;;;;;;477317;246;28515;-77
2020/12/21 08:57:22;;;;;;;6.00;2.30;;;8.10;99.90;;;;;;477329;249;27881;-76
2020/12/21 08:59:23;;;;;;;8.50;2.73;;;8.10;99.90;;;;;;477301;249;27893;-77
2020/12/21 09:01:25;;;;;;;5.20;2.47;;;8.00;99.90;;;;;;477259;249;27913;-77
2020/12/21 09:03:26;;;;;;;7.20;2.00;;;8.10;99.90;;;;;;477242;249;27681;-76
2020/12/21 09:05:27;;;;;;;8.90;2.53;;;8.10;99.90;;;;;;477316;249;27952;-77
2020/12/21 09:07:28;;;;;;;4.20;2.30;;;8.10;99.90;;;;;;477297;249;27769;-76
2020/12/21 09:09:30;;;;;;;6.43;2.30;;;8.10;99.90;;;;;;477264;249;27705;-76
2020/12/21 09:11:31;;;;;;;7.80;2.63;;;8.10;99.90;;;;;;477211;249;27993;-76
2020/12/21 09:13:32;;;;;;;5.97;2.53;;;8.20;99.90;;;;;;477258;249;28011;-77
2020/12/21 09:15:33;;;;;;;5.87;2.10;;;8.20;99.90;;;;;;477319;249;27797;-77
2020/12/21 09:17:36;;;;;;;3.53;2.07;;;8.20;99.90;;;;;;477276;245;28004;-77
2020/12/21 09:19:37;;;;;;;5.03;2.70;;;8.20;99.90;;;;;;477193;249;28673;-77
2020/12/21 09:21:37;;;;;;;10.60;2.83;;;8.30;99.90;;;;;;477258;249;28475;-77
2020/12/21 09:23:38;;;;;;;5.20;2.60;;;8.20;99.90;;;;;;477311;249;27678;-76
2020/12/21 09:25:40;;;;;;;8.30;2.63;;;8.20;99.90;;;;;;477343;249;27841;-76
2020/12/21 09:27:41;;;;;;;4.50;2.50;;;8.20;99.90;;;;;;477423;249;28052;-77
2020/12/21 09:29:42;;;;;;;4.17;2.43;;;8.30;99.90;;;;;;477409;249;27910;-76
2020/12/21 09:31:43;;;;;;;10.33;3.20;;;8.20;99.90;;;;;;477410;249;27778;-76
2020/12/21 09:33:45;;;;;;;4.50;2.53;;;8.20;99.90;;;;;;477476;249;27875;-77
2020/12/21 09:35:46;;;;;;;7.00;2.20;;;8.30;99.90;;;;;;477450;245;27999;-77
2020/12/21 09:37:47;;;;;;;5.73;2.37;;;8.30;99.90;;;;;;477426;249;27428;-77
2020/12/21 09:39:48;;;;;;;4.00;2.23;;;8.40;99.90;;;;;;477321;249;28037;-76
2020/12/21 09:41:50;;;;;;;3.27;2.10;;;8.40;99.90;;;;;;476962;249;27917;-76
2020/12/21 09:43:51;;;;;;;4.97;2.57;;;8.40;99.90;;;;;;477308;249;28060;-77
2020/12/21 09:45:52;;;;;;;12.23;2.53;;;8.40;99.90;;;;;;477165;249;28027;-76
2020/12/21 09:47:53;;;;;;;3.30;2.50;;;8.40;99.90;;;;;;477302;249;28131;-77
2020/12/21 09:49:55;;;;;;;5.77;2.50;;;8.40;99.90;;;;;;477286;249;28034;-78
2020/12/21 09:51:56;;;;;;;8.40;2.10;;;8.50;99.90;;;;;;477245;249;28215;-76
2020/12/21 09:53:57;;;;;;;4.33;2.27;;;8.50;99.90;;;;;;477316;249;28512;-77
2020/12/21 09:55:58;;;;;;;8.97;2.07;;;8.50;99.90;;;;;;477292;249;28476;-76
2020/12/21 09:58:00;;;;;;;5.30;2.13;;;8.40;99.90;;;;;;477306;249;28428;-77
2020/12/21 10:00:01;;;;;;;4.57;2.23;;;8.50;99.90;;;;;;477340;249;28494;-76
2020/12/21 10:02:02;;;;;;;5.90;2.30;;;8.50;99.90;;;;;;477453;245;27730;-77
2020/12/21 10:04:03;;;;;;;3.40;2.17;;;8.60;99.90;;;;;;477479;249;27901;-76
2020/12/21 10:06:05;;;;;;;4.43;2.20;;;8.60;99.90;;;;;;477382;249;27867;-76
2020/12/21 10:08:06;;;;;;;4.97;2.33;;;8.70;99.90;;;;;;477318;249;27586;-77
2020/12/21 10:10:07;;;;;;;4.40;2.00;;;8.70;99.90;;;;;;477388;249;27673;-77
2020/12/21 10:12:08;;;;;;;9.70;2.93;;;8.60;99.90;;;;;;477479;249;27868;-76
2020/12/21 10:14:10;;;;;;;6.37;2.40;;;8.60;99.90;;;;;;477464;249;28074;-78
2020/12/21 10:16:11;;;;;;;5.03;1.93;;;8.60;99.90;;;;;;477470;249;27918;-76
2020/12/21 10:18:12;;;;;;;3.80;2.00;;;8.70;99.90;;;;;;477437;249;27980;-77
2020/12/21 10:20:13;;;;;;;4.20;1.83;;;8.70;99.90;;;;;;477396;249;27934;-78
2020/12/21 10:22:15;;;;;;;4.27;2.30;;;8.60;99.90;;;;;;477410;249;28037;-76
2020/12/21 10:24:16;;;;;;;4.50;2.37;;;8.60;99.90;;;;;;477392;249;28027;-77
2020/12/21 10:26:17;;;;;;;2.90;1.90;;;8.80;99.90;;;;;;477351;249;27764;-74
2020/12/21 10:28:18;;;;;;;4.30;1.90;;;8.90;99.90;;;;;;477254;249;28476;-76
2020/12/21 10:30:20;;;;;;;6.70;1.97;;;9.00;99.90;;;;;;477260;249;28426;-76
2020/12/21 10:32:21;;;;;;;4.03;2.03;;;9.00;99.90;;;;;;477282;249;28668;-77
2020/12/21 10:34:22;;;;;;;6.77;2.17;;;9.00;99.90;;;;;;477285;249;28467;-78
2020/12/21 10:36:23;;;;;;;4.63;2.23;;;8.90;99.90;;;;;;477313;249;28506;-77
2020/12/21 10:38:25;;;;;;;3.67;2.00;;;8.90;99.90;;;;;;477262;249;27949;-77